sensor_id;sensor_type;location;lat;lon;timestamp;noise_LAeq;noise_LA_min;noise_LA_max;noise_LA01;noise_LA95
81493;Laerm;70900;51.798;10.954;2024-02-15T00:02:06;41.44;34.10;49.01;;
81493;Laerm;70900;51.798;10.954;2024-02-15T00:04:31;39.51;33.44;45.14;;
81493;Laerm;70900;51.798;10.954;2024-02-15T00:06:58;39.80;33.22;50.95;;
81493;Laerm;70900;51.798;10.954;2024-02-15T00:09:24;39.19;32.89;46.76;;
81493;Laerm;70900;51.798;10.954;2024-02-15T00:11:50;39.73;32.12;50.45;;
81493;Laerm;70900;51.798;10.954;2024-02-15T00:14:15;41.24;34.21;50.52;;
81493;Laerm;70900;51.798;10.954;2024-02-15T00:16:40;39.51;32.82;55.52;;
81493;Laerm;70900;51.798;10.954;2024-02-15T00:19:06;37.08;31.57;44.91;;
81493;Laerm;70900;51.798;10.954;2024-02-15T00:21:32;42.83;31.48;56.52;;
81493;Laerm;70900;51.798;10.954;2024-02-15T00:23:57;42.17;36.44;52.59;;
81493;Laerm;70900;51.798;10.954;2024-02-15T00:26:25;39.69;32.15;53.43;;
81493;Laerm;70900;51.798;10.954;2024-02-15T00:28:50;37.92;31.80;53.99;;
81493;Laerm;70900;51.798;10.954;2024-02-15T00:31:15;36.27;30.38;51.20;;
81493;Laerm;70900;51.798;10.954;2024-02-15T00:33:41;37.66;30.90;47.98;;
81493;Laerm;70900;51.798;10.954;2024-02-15T00:36:06;40.11;30.16;48.68;;
81493;Laerm;70900;51.798;10.954;2024-02-15T00:38:32;35.76;29.42;47.72;;
81493;Laerm;70900;51.798;10.954;2024-02-15T00:40:57;35.09;30.04;44.94;;
81493;Laerm;70900;51.798;10.954;2024-02-15T00:43:24;31.69;26.52;38.12;;
81493;Laerm;70900;51.798;10.954;2024-02-15T00:45:49;30.19;26.39;38.96;;
81493;Laerm;70900;51.798;10.954;2024-02-15T00:48:15;30.49;26.72;40.38;;
81493;Laerm;70900;51.798;10.954;2024-02-15T00:50:40;28.77;25.46;39.50;;
81493;Laerm;70900;51.798;10.954;2024-02-15T00:53:05;32.95;25.50;55.85;;
81493;Laerm;70900;51.798;10.954;2024-02-15T00:55:31;38.24;25.86;55.40;;
81493;Laerm;70900;51.798;10.954;2024-02-15T00:57:56;31.27;25.04;44.42;;
81493;Laerm;70900;51.798;10.954;2024-02-15T01:00:22;27.45;24.83;39.43;;
81493;Laerm;70900;51.798;10.954;2024-02-15T01:02:48;31.52;25.93;45.37;;
81493;Laerm;70900;51.798;10.954;2024-02-15T01:05:14;30.33;26.84;38.61;;
81493;Laerm;70900;51.798;10.954;2024-02-15T01:07:41;30.21;26.70;41.03;;
81493;Laerm;70900;51.798;10.954;2024-02-15T01:10:06;29.31;25.83;41.56;;
81493;Laerm;70900;51.798;10.954;2024-02-15T01:12:32;31.34;26.14;42.36;;
81493;Laerm;70900;51.798;10.954;2024-02-15T01:14:58;31.42;26.10;46.69;;
81493;Laerm;70900;51.798;10.954;2024-02-15T01:17:23;44.31;25.51;74.86;;
81493;Laerm;70900;51.798;10.954;2024-02-15T01:19:49;33.11;26.85;46.93;;
81493;Laerm;70900;51.798;10.954;2024-02-15T01:22:14;49.97;27.15;65.68;;
81493;Laerm;70900;51.798;10.954;2024-02-15T01:24:39;29.80;25.14;40.48;;
81493;Laerm;70900;51.798;10.954;2024-02-15T01:27:05;30.03;25.56;38.15;;
81493;Laerm;70900;51.798;10.954;2024-02-15T01:29:32;29.55;25.96;39.94;;
81493;Laerm;70900;51.798;10.954;2024-02-15T01:31:58;30.96;26.12;39.37;;
81493;Laerm;70900;51.798;10.954;2024-02-15T01:34:23;27.85;24.56;38.51;;
81493;Laerm;70900;51.798;10.954;2024-02-15T01:36:48;32.16;25.13;46.36;;
81493;Laerm;70900;51.798;10.954;2024-02-15T01:39:15;28.27;24.89;36.76;;
81493;Laerm;70900;51.798;10.954;2024-02-15T01:41:40;32.34;26.79;47.20;;
81493;Laerm;70900;51.798;10.954;2024-02-15T01:44:06;33.30;27.01;43.92;;
81493;Laerm;70900;51.798;10.954;2024-02-15T01:46:32;34.26;26.16;48.82;;
81493;Laerm;70900;51.798;10.954;2024-02-15T01:48:57;32.09;25.52;42.06;;
81493;Laerm;70900;51.798;10.954;2024-02-15T01:51:23;34.44;26.07;49.62;;
81493;Laerm;70900;51.798;10.954;2024-02-15T01:53:50;29.29;25.04;40.16;;
81493;Laerm;70900;51.798;10.954;2024-02-15T01:56:18;29.41;25.12;40.10;;
81493;Laerm;70900;51.798;10.954;2024-02-15T01:58:45;30.96;25.12;43.01;;
81493;Laerm;70900;51.798;10.954;2024-02-15T02:01:11;40.68;24.42;53.59;;
81493;Laerm;70900;51.798;10.954;2024-02-15T02:03:36;27.41;24.33;38.80;;
81493;Laerm;70900;51.798;10.954;2024-02-15T02:06:02;30.85;24.55;42.57;;
81493;Laerm;70900;51.798;10.954;2024-02-15T02:08:28;28.96;23.92;39.86;;
81493;Laerm;70900;51.798;10.954;2024-02-15T02:10:53;29.81;24.78;40.02;;
81493;Laerm;70900;51.798;10.954;2024-02-15T02:13:19;27.34;23.81;40.61;;
81493;Laerm;70900;51.798;10.954;2024-02-15T02:15:44;26.71;23.41;36.66;;
81493;Laerm;70900;51.798;10.954;2024-02-15T02:18:09;28.54;23.83;42.64;;
81493;Laerm;70900;51.798;10.954;2024-02-15T02:20:35;27.95;23.38;39.32;;
81493;Laerm;70900;51.798;10.954;2024-02-15T02:23:07;31.81;24.93;49.99;;
81493;Laerm;70900;51.798;10.954;2024-02-15T02:25:35;28.27;23.43;42.28;;
81493;Laerm;70900;51.798;10.954;2024-02-15T02:28:01;30.51;24.66;44.55;;
81493;Laerm;70900;51.798;10.954;2024-02-15T02:30:26;28.23;25.00;41.02;;
81493;Laerm;70900;51.798;10.954;2024-02-15T02:32:55;33.79;24.12;57.86;;
81493;Laerm;70900;51.798;10.954;2024-02-15T02:35:20;31.76;27.55;38.07;;
81493;Laerm;70900;51.798;10.954;2024-02-15T02:37:45;30.88;25.24;39.06;;
81493;Laerm;70900;51.798;10.954;2024-02-15T02:40:11;29.21;25.51;39.99;;
81493;Laerm;70900;51.798;10.954;2024-02-15T02:45:21;41.18;26.53;51.49;;
81493;Laerm;70900;51.798;10.954;2024-02-15T02:47:51;34.88;25.46;45.80;;
81493;Laerm;70900;51.798;10.954;2024-02-15T02:50:16;27.88;24.51;40.26;;
81493;Laerm;70900;51.798;10.954;2024-02-15T02:52:43;26.74;23.98;37.34;;
81493;Laerm;70900;51.798;10.954;2024-02-15T02:55:08;27.42;23.94;43.95;;
81493;Laerm;70900;51.798;10.954;2024-02-15T02:57:34;28.00;25.04;41.14;;
81493;Laerm;70900;51.798;10.954;2024-02-15T03:00:01;33.89;26.56;44.15;;
81493;Laerm;70900;51.798;10.954;2024-02-15T03:02:29;27.99;24.12;40.58;;
81493;Laerm;70900;51.798;10.954;2024-02-15T03:04:55;27.44;24.13;38.77;;
81493;Laerm;70900;51.798;10.954;2024-02-15T03:07:20;30.16;26.08;42.39;;
81493;Laerm;70900;51.798;10.954;2024-02-15T03:09:48;29.38;26.94;38.86;;
81493;Laerm;70900;51.798;10.954;2024-02-15T03:12:13;32.35;27.64;50.76;;
81493;Laerm;70900;51.798;10.954;2024-02-15T03:14:39;30.03;26.16;40.13;;
81493;Laerm;70900;51.798;10.954;2024-02-15T03:17:06;32.68;27.14;44.64;;
81493;Laerm;70900;51.798;10.954;2024-02-15T03:19:31;31.69;27.93;40.80;;
81493;Laerm;70900;51.798;10.954;2024-02-15T03:21:56;31.82;27.22;42.01;;
81493;Laerm;70900;51.798;10.954;2024-02-15T03:24:22;33.99;27.40;50.10;;
81493;Laerm;70900;51.798;10.954;2024-02-15T03:26:47;32.44;27.08;45.86;;
81493;Laerm;70900;51.798;10.954;2024-02-15T03:29:12;34.72;30.26;43.57;;
81493;Laerm;70900;51.798;10.954;2024-02-15T03:31:38;48.97;31.16;65.57;;
81493;Laerm;70900;51.798;10.954;2024-02-15T03:34:03;32.81;27.90;41.20;;
81493;Laerm;70900;51.798;10.954;2024-02-15T03:36:29;54.48;28.80;72.38;;
81493;Laerm;70900;51.798;10.954;2024-02-15T03:38:55;37.49;30.38;51.80;;
81493;Laerm;70900;51.798;10.954;2024-02-15T03:41:20;35.71;30.13;49.78;;
81493;Laerm;70900;51.798;10.954;2024-02-15T03:43:46;37.82;30.88;56.04;;
81493;Laerm;70900;51.798;10.954;2024-02-15T03:46:12;35.24;32.38;41.83;;
81493;Laerm;70900;51.798;10.954;2024-02-15T03:48:38;35.41;32.39;51.17;;
81493;Laerm;70900;51.798;10.954;2024-02-15T03:51:04;35.86;31.95;51.41;;
81493;Laerm;70900;51.798;10.954;2024-02-15T03:53:31;53.55;29.71;71.22;;
81493;Laerm;70900;51.798;10.954;2024-02-15T03:55:58;35.16;31.04;45.60;;
81493;Laerm;70900;51.798;10.954;2024-02-15T03:58:25;35.11;30.81;45.44;;
81493;Laerm;70900;51.798;10.954;2024-02-15T04:00:51;34.00;29.30;41.97;;
81493;Laerm;70900;51.798;10.954;2024-02-15T04:03:16;34.72;30.50;53.08;;
81493;Laerm;70900;51.798;10.954;2024-02-15T04:05:41;34.19;30.49;39.76;;
81493;Laerm;70900;51.798;10.954;2024-02-15T04:08:07;36.30;31.60;44.66;;
81493;Laerm;70900;51.798;10.954;2024-02-15T04:10:33;37.41;31.40;52.45;;
81493;Laerm;70900;51.798;10.954;2024-02-15T04:12:59;35.34;32.07;40.61;;
81493;Laerm;70900;51.798;10.954;2024-02-15T04:15:24;40.78;32.34;58.51;;
81493;Laerm;70900;51.798;10.954;2024-02-15T04:17:49;53.35;34.17;70.00;;
81493;Laerm;70900;51.798;10.954;2024-02-15T04:20:21;39.33;34.58;46.65;;
81493;Laerm;70900;51.798;10.954;2024-02-15T04:22:46;37.60;33.17;46.76;;
81493;Laerm;70900;51.798;10.954;2024-02-15T04:25:12;38.30;34.43;50.51;;
81493;Laerm;70900;51.798;10.954;2024-02-15T04:27:44;51.66;33.42;63.94;;
81493;Laerm;70900;51.798;10.954;2024-02-15T04:30:09;37.87;33.64;54.49;;
81493;Laerm;70900;51.798;10.954;2024-02-15T04:32:36;40.12;36.03;55.31;;
81493;Laerm;70900;51.798;10.954;2024-02-15T04:35:01;41.27;33.26;56.92;;
81493;Laerm;70900;51.798;10.954;2024-02-15T04:37:27;47.97;34.70;64.99;;
81493;Laerm;70900;51.798;10.954;2024-02-15T04:39:54;47.72;33.25;63.55;;
81493;Laerm;70900;51.798;10.954;2024-02-15T04:42:19;49.90;34.00;65.63;;
81493;Laerm;70900;51.798;10.954;2024-02-15T04:44:45;64.82;35.53;82.80;;
81493;Laerm;70900;51.798;10.954;2024-02-15T04:47:10;50.91;33.31;64.84;;
81493;Laerm;70900;51.798;10.954;2024-02-15T04:49:36;48.86;33.41;65.02;;
81493;Laerm;70900;51.798;10.954;2024-02-15T04:52:04;51.47;32.61;69.11;;
81493;Laerm;70900;51.798;10.954;2024-02-15T04:54:30;47.32;32.46;64.09;;
81493;Laerm;70900;51.798;10.954;2024-02-15T04:56:56;53.80;35.49;66.57;;
81493;Laerm;70900;51.798;10.954;2024-02-15T04:59:22;51.26;33.09;68.72;;
81493;Laerm;70900;51.798;10.954;2024-02-15T05:01:51;47.09;33.62;67.08;;
81493;Laerm;70900;51.798;10.954;2024-02-15T05:04:17;38.04;32.86;47.11;;
81493;Laerm;70900;51.798;10.954;2024-02-15T05:06:43;45.78;35.28;63.10;;
81493;Laerm;70900;51.798;10.954;2024-02-15T05:09:10;52.44;39.23;74.01;;
81493;Laerm;70900;51.798;10.954;2024-02-15T05:11:38;45.51;35.60;58.71;;
81493;Laerm;70900;51.798;10.954;2024-02-15T05:14:11;39.98;35.62;49.13;;
81493;Laerm;70900;51.798;10.954;2024-02-15T05:16:36;40.08;36.02;53.02;;
81493;Laerm;70900;51.798;10.954;2024-02-15T05:19:10;53.27;35.28;68.02;;
81493;Laerm;70900;51.798;10.954;2024-02-15T05:21:38;48.40;35.95;63.94;;
81493;Laerm;70900;51.798;10.954;2024-02-15T05:24:04;49.10;36.61;78.21;;
81493;Laerm;70900;51.798;10.954;2024-02-15T05:26:30;55.25;37.94;68.07;;
81493;Laerm;70900;51.798;10.954;2024-02-15T05:28:55;55.75;37.56;71.03;;
81493;Laerm;70900;51.798;10.954;2024-02-15T05:31:21;55.32;37.75;69.47;;
81493;Laerm;70900;51.798;10.954;2024-02-15T05:33:47;58.71;39.95;74.11;;
81493;Laerm;70900;51.798;10.954;2024-02-15T05:36:13;56.68;38.47;72.17;;
81493;Laerm;70900;51.798;10.954;2024-02-15T05:38:41;54.74;38.49;69.82;;
81493;Laerm;70900;51.798;10.954;2024-02-15T05:41:10;50.30;35.79;66.38;;
81493;Laerm;70900;51.798;10.954;2024-02-15T05:43:36;48.03;36.87;62.13;;
81493;Laerm;70900;51.798;10.954;2024-02-15T05:46:03;56.03;37.83;69.45;;
81493;Laerm;70900;51.798;10.954;2024-02-15T05:48:29;57.15;39.43;72.90;;
81493;Laerm;70900;51.798;10.954;2024-02-15T05:50:55;52.76;39.00;67.51;;
81493;Laerm;70900;51.798;10.954;2024-02-15T05:53:20;49.93;40.76;65.97;;
81493;Laerm;70900;51.798;10.954;2024-02-15T05:55:45;58.08;43.14;74.37;;
81493;Laerm;70900;51.798;10.954;2024-02-15T05:58:11;55.80;39.83;69.37;;
81493;Laerm;70900;51.798;10.954;2024-02-15T06:00:38;56.65;39.15;71.48;;
81493;Laerm;70900;51.798;10.954;2024-02-15T06:03:04;53.67;38.19;66.69;;
81493;Laerm;70900;51.798;10.954;2024-02-15T06:05:31;56.76;37.01;70.44;;
81493;Laerm;70900;51.798;10.954;2024-02-15T06:07:57;60.56;38.50;77.56;;
81493;Laerm;70900;51.798;10.954;2024-02-15T06:10:24;56.16;39.49;68.94;;
81493;Laerm;70900;51.798;10.954;2024-02-15T06:12:50;58.28;38.56;72.00;;
81493;Laerm;70900;51.798;10.954;2024-02-15T06:15:15;63.17;40.57;76.92;;
81493;Laerm;70900;51.798;10.954;2024-02-15T06:17:41;60.02;38.19;70.19;;
81493;Laerm;70900;51.798;10.954;2024-02-15T06:20:10;57.49;37.84;72.79;;
81493;Laerm;70900;51.798;10.954;2024-02-15T06:22:37;60.71;39.91;76.35;;
81493;Laerm;70900;51.798;10.954;2024-02-15T06:25:03;57.40;40.45;68.35;;
81493;Laerm;70900;51.798;10.954;2024-02-15T06:27:28;58.82;38.98;70.54;;
81493;Laerm;70900;51.798;10.954;2024-02-15T06:29:54;74.22;52.72;84.51;;
81493;Laerm;70900;51.798;10.954;2024-02-15T06:32:38;67.37;49.15;79.09;;
81493;Laerm;70900;51.798;10.954;2024-02-15T06:35:21;60.88;44.15;72.15;;
81493;Laerm;70900;51.798;10.954;2024-02-15T06:38:06;59.55;41.93;73.70;;
81493;Laerm;70900;51.798;10.954;2024-02-15T06:40:49;58.60;42.04;70.37;;
81493;Laerm;70900;51.798;10.954;2024-02-15T06:43:14;50.84;38.64;67.18;;
81493;Laerm;70900;51.798;10.954;2024-02-15T06:45:41;51.61;39.64;66.39;;
81493;Laerm;70900;51.798;10.954;2024-02-15T06:48:11;46.56;38.73;62.95;;
81493;Laerm;70900;51.798;10.954;2024-02-15T06:50:37;57.14;42.46;66.85;;
81493;Laerm;70900;51.798;10.954;2024-02-15T06:53:03;63.96;48.45;76.03;;
81493;Laerm;70900;51.798;10.954;2024-02-15T06:55:28;77.52;55.63;86.38;;
81493;Laerm;70900;51.798;10.954;2024-02-15T06:57:53;60.62;43.36;76.55;;
81493;Laerm;70900;51.798;10.954;2024-02-15T07:00:20;53.04;37.99;68.16;;
81493;Laerm;70900;51.798;10.954;2024-02-15T07:02:45;53.87;39.93;66.93;;
81493;Laerm;70900;51.798;10.954;2024-02-15T07:05:11;59.39;40.28;77.85;;
81493;Laerm;70900;51.798;10.954;2024-02-15T07:07:36;57.88;38.52;72.93;;
81493;Laerm;70900;51.798;10.954;2024-02-15T07:10:04;56.49;36.87;71.62;;
81493;Laerm;70900;51.798;10.954;2024-02-15T07:12:30;52.26;37.59;65.85;;
81493;Laerm;70900;51.798;10.954;2024-02-15T07:14:57;49.89;36.63;66.13;;
81493;Laerm;70900;51.798;10.954;2024-02-15T07:17:23;57.84;38.30;69.66;;
81493;Laerm;70900;51.798;10.954;2024-02-15T07:19:48;56.59;36.74;73.17;;
81493;Laerm;70900;51.798;10.954;2024-02-15T07:22:17;58.40;37.09;71.51;;
81493;Laerm;70900;51.798;10.954;2024-02-15T07:24:42;42.58;36.71;63.21;;
81493;Laerm;70900;51.798;10.954;2024-02-15T07:27:07;42.57;37.84;52.74;;
81493;Laerm;70900;51.798;10.954;2024-02-15T07:29:33;54.34;36.91;65.65;;
81493;Laerm;70900;51.798;10.954;2024-02-15T07:32:02;56.65;37.73;68.95;;
81493;Laerm;70900;51.798;10.954;2024-02-15T07:34:32;55.51;37.00;68.52;;
81493;Laerm;70900;51.798;10.954;2024-02-15T07:36:58;58.69;36.98;77.28;;
81493;Laerm;70900;51.798;10.954;2024-02-15T07:39:24;43.66;35.86;58.01;;
81493;Laerm;70900;51.798;10.954;2024-02-15T07:41:50;49.81;36.28;64.52;;
81493;Laerm;70900;51.798;10.954;2024-02-15T07:44:16;53.24;37.01;71.26;;
81493;Laerm;70900;51.798;10.954;2024-02-15T07:46:42;54.11;37.29;66.96;;
81493;Laerm;70900;51.798;10.954;2024-02-15T07:49:08;61.55;36.82;76.11;;
81493;Laerm;70900;51.798;10.954;2024-02-15T07:51:33;54.44;37.66;65.79;;
81493;Laerm;70900;51.798;10.954;2024-02-15T07:53:58;59.86;38.00;75.43;;
81493;Laerm;70900;51.798;10.954;2024-02-15T07:56:24;57.08;39.84;71.98;;
81493;Laerm;70900;51.798;10.954;2024-02-15T07:58:49;62.18;39.29;82.97;;
81493;Laerm;70900;51.798;10.954;2024-02-15T08:01:17;54.37;39.59;66.98;;
81493;Laerm;70900;51.798;10.954;2024-02-15T08:03:42;56.52;38.90;67.56;;
81493;Laerm;70900;51.798;10.954;2024-02-15T08:06:13;56.87;40.45;70.84;;
81493;Laerm;70900;51.798;10.954;2024-02-15T08:08:43;54.31;37.68;68.57;;
81493;Laerm;70900;51.798;10.954;2024-02-15T08:11:11;49.73;37.10;64.86;;
81493;Laerm;70900;51.798;10.954;2024-02-15T08:13:49;52.49;38.04;67.37;;
81493;Laerm;70900;51.798;10.954;2024-02-15T08:16:15;53.00;37.31;65.58;;
81493;Laerm;70900;51.798;10.954;2024-02-15T08:18:41;57.30;38.18;69.59;;
81493;Laerm;70900;51.798;10.954;2024-02-15T08:21:09;59.72;37.84;75.20;;
81493;Laerm;70900;51.798;10.954;2024-02-15T08:23:35;53.54;38.18;67.49;;
81493;Laerm;70900;51.798;10.954;2024-02-15T08:26:01;52.69;37.55;69.87;;
81493;Laerm;70900;51.798;10.954;2024-02-15T08:28:26;52.58;35.88;68.14;;
81493;Laerm;70900;51.798;10.954;2024-02-15T08:30:54;54.48;36.39;67.89;;
81493;Laerm;70900;51.798;10.954;2024-02-15T08:33:19;58.90;38.00;76.39;;
81493;Laerm;70900;51.798;10.954;2024-02-15T08:35:45;57.23;39.01;69.45;;
81493;Laerm;70900;51.798;10.954;2024-02-15T08:38:10;54.13;37.13;69.14;;
81493;Laerm;70900;51.798;10.954;2024-02-15T08:40:36;56.82;38.90;68.28;;
81493;Laerm;70900;51.798;10.954;2024-02-15T08:43:01;47.46;37.07;65.88;;
81493;Laerm;70900;51.798;10.954;2024-02-15T08:45:26;56.65;38.31;68.53;;
81493;Laerm;70900;51.798;10.954;2024-02-15T08:47:52;54.99;39.59;68.63;;
81493;Laerm;70900;51.798;10.954;2024-02-15T08:50:20;53.80;38.79;69.30;;
81493;Laerm;70900;51.798;10.954;2024-02-15T08:52:48;55.19;38.90;68.77;;
81493;Laerm;70900;51.798;10.954;2024-02-15T08:55:14;52.64;40.00;67.20;;
81493;Laerm;70900;51.798;10.954;2024-02-15T08:57:39;61.80;41.36;76.01;;
81493;Laerm;70900;51.798;10.954;2024-02-15T09:00:06;54.61;39.63;68.36;;
81493;Laerm;70900;51.798;10.954;2024-02-15T09:02:38;54.22;39.80;68.15;;
81493;Laerm;70900;51.798;10.954;2024-02-15T09:05:04;49.76;38.35;66.58;;
81493;Laerm;70900;51.798;10.954;2024-02-15T09:07:29;56.54;38.59;69.15;;
81493;Laerm;70900;51.798;10.954;2024-02-15T09:09:55;51.90;38.92;67.33;;
81493;Laerm;70900;51.798;10.954;2024-02-15T09:12:21;57.73;40.11;70.59;;
81493;Laerm;70900;51.798;10.954;2024-02-15T09:14:47;51.88;39.40;65.67;;
81493;Laerm;70900;51.798;10.954;2024-02-15T09:17:13;58.74;41.83;69.51;;
81493;Laerm;70900;51.798;10.954;2024-02-15T09:19:39;53.47;39.63;66.53;;
81493;Laerm;70900;51.798;10.954;2024-02-15T09:22:04;59.31;38.08;72.22;;
81493;Laerm;70900;51.798;10.954;2024-02-15T09:24:30;57.33;39.11;73.68;;
81493;Laerm;70900;51.798;10.954;2024-02-15T09:26:55;59.15;36.90;71.36;;
81493;Laerm;70900;51.798;10.954;2024-02-15T09:29:21;57.68;37.03;76.81;;
81493;Laerm;70900;51.798;10.954;2024-02-15T09:31:49;57.78;36.01;76.09;;
81493;Laerm;70900;51.798;10.954;2024-02-15T09:34:14;60.37;37.63;77.95;;
81493;Laerm;70900;51.798;10.954;2024-02-15T09:36:39;53.83;34.48;67.71;;
81493;Laerm;70900;51.798;10.954;2024-02-15T09:39:05;57.01;36.17;72.65;;
81493;Laerm;70900;51.798;10.954;2024-02-15T09:41:31;56.29;35.70;69.49;;
81493;Laerm;70900;51.798;10.954;2024-02-15T09:43:57;57.46;38.36;74.50;;
81493;Laerm;70900;51.798;10.954;2024-02-15T09:46:22;57.71;40.25;68.75;;
81493;Laerm;70900;51.798;10.954;2024-02-15T09:48:49;51.07;36.75;64.50;;
81493;Laerm;70900;51.798;10.954;2024-02-15T09:51:15;49.85;36.32;65.41;;
81493;Laerm;70900;51.798;10.954;2024-02-15T09:53:41;55.84;35.52;69.73;;
81493;Laerm;70900;51.798;10.954;2024-02-15T09:56:07;57.34;36.97;69.79;;
81493;Laerm;70900;51.798;10.954;2024-02-15T09:58:33;58.43;38.97;67.73;;
81493;Laerm;70900;51.798;10.954;2024-02-15T10:01:03;53.20;35.37;66.34;;
81493;Laerm;70900;51.798;10.954;2024-02-15T10:03:31;54.87;38.05;67.45;;
81493;Laerm;70900;51.798;10.954;2024-02-15T10:05:57;50.43;35.84;71.39;;
81493;Laerm;70900;51.798;10.954;2024-02-15T10:08:23;53.47;39.45;65.95;;
81493;Laerm;70900;51.798;10.954;2024-02-15T10:11:05;58.73;41.30;70.64;;
81493;Laerm;70900;51.798;10.954;2024-02-15T10:13:32;46.22;36.46;62.76;;
81493;Laerm;70900;51.798;10.954;2024-02-15T10:15:57;56.92;38.94;68.42;;
81493;Laerm;70900;51.798;10.954;2024-02-15T10:18:22;58.53;39.87;72.90;;
81493;Laerm;70900;51.798;10.954;2024-02-15T10:20:57;54.92;40.33;69.04;;
81493;Laerm;70900;51.798;10.954;2024-02-15T10:23:22;60.77;40.62;74.80;;
81493;Laerm;70900;51.798;10.954;2024-02-15T10:25:48;56.86;40.05;68.27;;
81493;Laerm;70900;51.798;10.954;2024-02-15T10:28:14;61.14;38.84;86.17;;
81493;Laerm;70900;51.798;10.954;2024-02-15T10:30:45;56.93;40.28;81.32;;
81493;Laerm;70900;51.798;10.954;2024-02-15T10:33:17;58.60;38.51;75.37;;
81493;Laerm;70900;51.798;10.954;2024-02-15T10:35:45;60.76;41.34;73.97;;
81493;Laerm;70900;51.798;10.954;2024-02-15T10:38:10;57.03;37.79;73.99;;
81493;Laerm;70900;51.798;10.954;2024-02-15T10:40:36;47.61;36.52;62.83;;
81493;Laerm;70900;51.798;10.954;2024-02-15T10:43:05;51.61;37.30;65.72;;
81493;Laerm;70900;51.798;10.954;2024-02-15T10:45:31;52.78;40.26;65.56;;
81493;Laerm;70900;51.798;10.954;2024-02-15T10:47:56;58.36;37.83;71.43;;
81493;Laerm;70900;51.798;10.954;2024-02-15T10:50:22;57.75;38.56;72.68;;
81493;Laerm;70900;51.798;10.954;2024-02-15T10:52:51;50.76;39.84;65.13;;
81493;Laerm;70900;51.798;10.954;2024-02-15T10:55:21;57.51;39.67;68.89;;
81493;Laerm;70900;51.798;10.954;2024-02-15T10:57:48;55.07;39.01;67.07;;
81493;Laerm;70900;51.798;10.954;2024-02-15T11:00:16;53.05;39.45;68.17;;
81493;Laerm;70900;51.798;10.954;2024-02-15T11:03:02;54.74;39.23;65.49;;
81493;Laerm;70900;51.798;10.954;2024-02-15T11:05:29;55.55;39.56;73.07;;
81493;Laerm;70900;51.798;10.954;2024-02-15T11:07:57;54.73;37.00;69.59;;
81493;Laerm;70900;51.798;10.954;2024-02-15T11:10:22;53.98;37.76;66.46;;
81493;Laerm;70900;51.798;10.954;2024-02-15T11:12:49;50.39;37.56;64.38;;
81493;Laerm;70900;51.798;10.954;2024-02-15T11:17:59;57.01;36.72;69.85;;
81493;Laerm;70900;51.798;10.954;2024-02-15T11:20:45;52.81;36.63;67.38;;
81493;Laerm;70900;51.798;10.954;2024-02-15T11:23:10;52.18;36.36;68.98;;
81493;Laerm;70900;51.798;10.954;2024-02-15T11:25:38;52.41;36.07;64.27;;
81493;Laerm;70900;51.798;10.954;2024-02-15T11:30:48;42.08;34.64;55.81;;
81493;Laerm;70900;51.798;10.954;2024-02-15T11:36:04;57.76;35.08;76.15;;
81493;Laerm;70900;51.798;10.954;2024-02-15T11:38:36;59.15;36.40;76.52;;
81493;Laerm;70900;51.798;10.954;2024-02-15T11:46:12;52.51;37.66;66.16;;
81493;Laerm;70900;51.798;10.954;2024-02-15T11:48:38;54.60;37.88;66.62;;
81493;Laerm;70900;51.798;10.954;2024-02-15T11:51:04;54.75;37.21;67.06;;
81493;Laerm;70900;51.798;10.954;2024-02-15T11:53:31;53.93;39.08;67.85;;
81493;Laerm;70900;51.798;10.954;2024-02-15T11:56:00;48.66;37.60;61.12;;
81493;Laerm;70900;51.798;10.954;2024-02-15T11:58:27;51.16;39.65;64.14;;
81493;Laerm;70900;51.798;10.954;2024-02-15T12:01:10;50.43;36.77;64.88;;
81493;Laerm;70900;51.798;10.954;2024-02-15T12:03:54;62.70;36.06;78.00;;
81493;Laerm;70900;51.798;10.954;2024-02-15T12:06:38;55.13;39.56;81.32;;
81493;Laerm;70900;51.798;10.954;2024-02-15T12:09:22;54.37;38.26;67.70;;
81493;Laerm;70900;51.798;10.954;2024-02-15T12:12:17;62.40;38.88;75.29;;
81493;Laerm;70900;51.798;10.954;2024-02-15T12:15:01;52.00;36.07;66.62;;
81493;Laerm;70900;51.798;10.954;2024-02-15T12:17:45;55.56;36.80;67.62;;
81493;Laerm;70900;51.798;10.954;2024-02-15T12:20:29;52.40;36.77;72.06;;
81493;Laerm;70900;51.798;10.954;2024-02-15T12:22:54;56.16;37.63;68.11;;
81493;Laerm;70900;51.798;10.954;2024-02-15T12:25:19;57.17;35.29;79.20;;
81493;Laerm;70900;51.798;10.954;2024-02-15T12:27:46;52.09;36.88;67.44;;
81493;Laerm;70900;51.798;10.954;2024-02-15T12:30:17;56.09;36.26;66.91;;
81493;Laerm;70900;51.798;10.954;2024-02-15T12:32:47;53.95;37.27;68.56;;
81493;Laerm;70900;51.798;10.954;2024-02-15T12:35:21;57.20;36.61;70.80;;
81493;Laerm;70900;51.798;10.954;2024-02-15T12:40:29;63.32;47.31;76.09;;
81493;Laerm;70900;51.798;10.954;2024-02-15T12:42:55;56.41;38.61;70.03;;
81493;Laerm;70900;51.798;10.954;2024-02-15T12:45:20;55.15;38.60;69.47;;
81493;Laerm;70900;51.798;10.954;2024-02-15T12:47:49;49.25;38.00;65.35;;
81493;Laerm;70900;51.798;10.954;2024-02-15T12:50:18;56.73;36.35;72.16;;
81493;Laerm;70900;51.798;10.954;2024-02-15T12:52:45;56.85;39.44;72.26;;
81493;Laerm;70900;51.798;10.954;2024-02-15T12:55:18;59.71;36.09;79.20;;
81493;Laerm;70900;51.798;10.954;2024-02-15T12:57:46;58.24;35.40;77.05;;
81493;Laerm;70900;51.798;10.954;2024-02-15T13:00:16;49.62;36.40;68.17;;
81493;Laerm;70900;51.798;10.954;2024-02-15T13:02:48;49.19;37.53;64.50;;
81493;Laerm;70900;51.798;10.954;2024-02-15T13:05:14;40.68;36.30;54.43;;
81493;Laerm;70900;51.798;10.954;2024-02-15T13:07:40;52.51;36.94;65.38;;
81493;Laerm;70900;51.798;10.954;2024-02-15T13:10:06;51.52;36.99;67.49;;
81493;Laerm;70900;51.798;10.954;2024-02-15T13:12:35;56.06;37.03;68.50;;
81493;Laerm;70900;51.798;10.954;2024-02-15T13:15:04;55.93;36.41;67.82;;
81493;Laerm;70900;51.798;10.954;2024-02-15T13:17:31;52.12;35.69;69.06;;
81493;Laerm;70900;51.798;10.954;2024-02-15T13:19:59;49.47;35.61;65.05;;
81493;Laerm;70900;51.798;10.954;2024-02-15T13:22:30;56.80;35.93;70.50;;
81493;Laerm;70900;51.798;10.954;2024-02-15T13:24:56;52.98;38.41;68.95;;
81493;Laerm;70900;51.798;10.954;2024-02-15T13:27:21;53.68;37.62;65.27;;
81493;Laerm;70900;51.798;10.954;2024-02-15T13:29:49;51.62;38.55;63.21;;
81493;Laerm;70900;51.798;10.954;2024-02-15T13:32:14;57.38;39.02;69.12;;
81493;Laerm;70900;51.798;10.954;2024-02-15T13:34:44;60.13;37.47;76.76;;
81493;Laerm;70900;51.798;10.954;2024-02-15T13:37:10;48.47;37.83;64.40;;
81493;Laerm;70900;51.798;10.954;2024-02-15T13:39:39;57.10;38.54;69.89;;
81493;Laerm;70900;51.798;10.954;2024-02-15T13:42:08;53.55;37.89;66.18;;
81493;Laerm;70900;51.798;10.954;2024-02-15T13:44:33;52.53;39.36;68.19;;
81493;Laerm;70900;51.798;10.954;2024-02-15T13:46:59;57.53;45.00;66.95;;
81493;Laerm;70900;51.798;10.954;2024-02-15T13:49:25;58.63;47.85;69.76;;
81493;Laerm;70900;51.798;10.954;2024-02-15T13:51:51;52.04;41.14;69.71;;